createdAt,value
2022-09-28T00:00:42.307Z,99448.03
2022-09-28T00:03:09.298Z,99451.59
2022-09-28T00:05:35.825Z,99448.88
2022-09-28T00:08:02.340Z,99443.34
2022-09-28T00:10:28.846Z,99443.34
2022-09-28T00:12:55.528Z,99446.22
2022-09-28T00:15:22.582Z,99448.41
2022-09-28T00:17:49.009Z,99442.94
2022-09-28T00:20:17.191Z,99446.75
2022-09-28T00:22:43.721Z,99445.41
2022-09-28T00:25:10.094Z,99450.09
2022-09-28T00:27:36.722Z,99448.31
2022-09-28T00:30:04.241Z,99445.09
2022-09-28T00:32:30.643Z,99445.25
2022-09-28T00:34:57.025Z,99441.63
2022-09-28T00:37:23.492Z,99435.22
2022-09-28T00:39:50.272Z,99436.19
2022-09-28T00:42:23.865Z,99430.81
2022-09-28T00:44:57.378Z,99429.53
2022-09-28T00:47:50.885Z,99423.09
2022-09-28T00:50:20.156Z,99424.78
2022-09-28T00:53:06.257Z,99423.09
2022-09-28T00:55:45.801Z,99425.72
2022-09-28T00:58:16.395Z,99422.03
2022-09-28T01:00:42.986Z,99420.81
2022-09-28T01:03:10.038Z,99408.97
2022-09-28T01:05:39.409Z,99415.81
2022-09-28T01:08:07.753Z,99407.41
2022-09-28T01:10:34.660Z,99412.44
2022-09-28T01:13:01.077Z,99406.88
2022-09-28T01:15:29.543Z,99410.41
2022-09-28T01:18:22.580Z,99410.56
2022-09-28T01:21:09.313Z,99400.72
2022-09-28T01:23:45.025Z,99409.13
2022-09-28T01:26:23.786Z,99404.88
2022-09-28T01:28:59.233Z,99407.72
2022-09-28T01:31:31.258Z,99399.34
2022-09-28T01:34:02.952Z,99403.88
2022-09-28T01:36:58.069Z,99405.66
2022-09-28T01:39:33.404Z,99406.78
2022-09-28T01:42:05.803Z,99402.69
2022-09-28T01:44:39.871Z,99402.47
2022-09-28T01:47:12.974Z,99402.56
2022-09-28T01:49:48.156Z,99400.50
2022-09-28T01:52:30.422Z,99399.66
2022-09-28T01:55:23.108Z,99398.59
2022-09-28T01:58:14.776Z,99391.28
2022-09-28T02:00:48.062Z,99387.38
2022-09-28T02:03:21.484Z,99383.50
2022-09-28T02:06:05.854Z,99390.97
2022-09-28T02:08:40.706Z,99392.41
2022-09-28T02:11:15.741Z,99395.19
2022-09-28T02:13:46.378Z,99391.97
2022-09-28T02:16:23.012Z,99387.34
2022-09-28T02:18:50.645Z,99387.53
2022-09-28T02:21:28.086Z,99389.03
2022-09-28T02:24:03.117Z,99384.28
2022-09-28T02:26:34.882Z,99381.34
2022-09-28T02:29:01.616Z,99382.09
2022-09-28T02:31:28.499Z,99378.50
2022-09-28T02:33:57.212Z,99380.09
2022-09-28T02:36:26.477Z,99384.50
2022-09-28T02:38:53.327Z,99374.88
2022-09-28T02:41:27.040Z,99376.56
2022-09-28T02:44:17.751Z,99379.34
2022-09-28T02:47:00.402Z,99374.88
2022-09-28T02:49:43.657Z,99372.16
2022-09-28T02:52:57.884Z,99373.00
2022-09-28T02:55:48.692Z,99374.53
2022-09-28T02:58:39.671Z,99371.84
2022-09-28T03:01:31.024Z,99377.25
2022-09-28T03:04:03.043Z,99370.16
2022-09-28T03:06:40.556Z,99377.31
2022-09-28T03:09:19.307Z,99375.78
2022-09-28T03:11:49.353Z,99377.66
2022-09-28T03:14:15.943Z,99373.50
2022-09-28T03:16:49.181Z,99376.28
2022-09-28T03:19:24.219Z,99376.69
2022-09-28T03:21:51.472Z,99370.28
2022-09-28T03:24:17.937Z,99371.22
2022-09-28T03:26:44.316Z,99373.69
2022-09-28T03:29:11.868Z,99371.78
2022-09-28T03:31:39.054Z,99376.09
2022-09-28T03:34:05.961Z,99371.84
2022-09-28T03:36:32.394Z,99367.53
2022-09-28T03:38:59.477Z,99364.84
2022-09-28T03:41:29.579Z,99366.78
2022-09-28T03:43:55.951Z,99361.69
2022-09-28T03:46:24.571Z,99359.91
2022-09-28T03:48:58.328Z,99354.78
2022-09-28T03:51:24.955Z,99358.16
2022-09-28T03:53:53.398Z,99361.03
2022-09-28T03:56:20.672Z,99362.78
2022-09-28T03:58:47.062Z,99361.34
2022-09-28T04:01:18.337Z,99361.44
2022-09-28T04:03:46.942Z,99351.53
2022-09-28T04:06:14.307Z,99356.94
2022-09-28T04:08:40.875Z,99352.81
2022-09-28T04:11:08.283Z,99353.66
2022-09-28T04:13:34.758Z,99353.91
2022-09-28T04:16:02.168Z,99358.38
2022-09-28T04:18:33.090Z,99357.91
2022-09-28T04:21:12.232Z,99362.13
2022-09-28T04:23:59.350Z,99363.81
2022-09-28T04:26:27.436Z,99365.59
2022-09-28T04:29:13.102Z,99364.66
2022-09-28T04:31:49.947Z,99366.63
2022-09-28T04:34:22.310Z,99365.91
2022-09-28T04:36:49.318Z,99365.69
2022-09-28T04:39:19.406Z,99371.00
2022-09-28T04:41:52.561Z,99368.06
2022-09-28T04:44:19.076Z,99367.38
2022-09-28T04:46:47.234Z,99369.53
2022-09-28T04:49:29.033Z,99373.78
2022-09-28T04:52:06.001Z,99373.69
2022-09-28T04:54:34.087Z,99368.63
2022-09-28T04:57:01.640Z,99369.41
2022-09-28T04:59:28.120Z,99367.41
2022-09-28T05:01:54.615Z,99367.19
2022-09-28T05:04:39.300Z,99371.09
2022-09-28T05:07:26.844Z,99370.94
2022-09-28T05:09:55.045Z,99371.47
2022-09-28T05:12:21.505Z,99372.00
2022-09-28T05:14:48.048Z,99367.84
2022-09-28T05:17:14.993Z,99363.53
2022-09-28T05:20:02.919Z,99373.25
2022-09-28T05:22:29.409Z,99365.63
2022-09-28T05:24:55.931Z,99368.94
2022-09-28T05:27:23.876Z,99366.91
2022-09-28T05:29:59.307Z,99368.13
2022-09-28T05:32:57.617Z,99369.97
2022-09-28T05:35:41.259Z,99372.41
2022-09-28T05:38:07.676Z,99369.84
2022-09-28T05:40:34.413Z,99367.09
2022-09-28T05:43:02.084Z,99356.78
2022-09-28T05:45:29.851Z,99359.84
2022-09-28T05:47:56.589Z,99358.75
2022-09-28T05:50:23.744Z,99365.06
2022-09-28T05:53:05.672Z,99374.19
2022-09-28T05:55:33.159Z,99369.25
2022-09-28T05:58:05.387Z,99368.41
2022-09-28T06:00:33.051Z,99366.19
2022-09-28T06:03:08.058Z,99367.59
2022-09-28T06:05:36.150Z,99371.78
2022-09-28T06:08:05.007Z,99370.56
2022-09-28T06:10:32.582Z,99378.78
2022-09-28T06:13:00.891Z,99369.66
2022-09-28T06:15:29.607Z,99376.56
2022-09-28T06:18:02.462Z,99375.41
2022-09-28T06:20:42.531Z,99374.56
2022-09-28T06:23:16.137Z,99373.56
2022-09-28T06:25:43.049Z,99379.72
2022-09-28T06:28:14.551Z,99381.03
2022-09-28T06:30:42.729Z,99375.34
2022-09-28T06:33:14.031Z,99385.41
2022-09-28T06:35:41.093Z,99384.16
2022-09-28T06:38:08.119Z,99392.84
2022-09-28T06:40:35.128Z,99393.38
2022-09-28T06:43:19.553Z,99391.63
2022-09-28T06:46:04.750Z,99401.00
2022-09-28T06:48:49.979Z,99398.63
2022-09-28T06:51:36.655Z,99405.28
2022-09-28T06:54:18.511Z,99398.75
2022-09-28T06:56:53.283Z,99408.84
2022-09-28T06:59:20.274Z,99405.41
2022-09-28T07:01:46.858Z,99404.69
2022-09-28T07:04:20.289Z,99405.63
2022-09-28T07:07:21.895Z,99400.16
2022-09-28T07:10:17.609Z,99407.81
2022-09-28T07:13:04.778Z,99406.34
2022-09-28T07:15:41.195Z,99405.63
2022-09-28T07:18:12.461Z,99416.41
2022-09-28T07:20:52.298Z,99414.50
2022-09-28T07:23:20.840Z,99416.00
2022-09-28T07:26:14.689Z,99419.75
2022-09-28T07:28:54.966Z,99419.91
2022-09-28T07:31:38.206Z,99426.56
2022-09-28T07:34:13.866Z,99427.84
2022-09-28T07:37:02.172Z,99432.47
2022-09-28T07:39:28.936Z,99428.63
2022-09-28T07:41:59.728Z,99429.84
2022-09-28T07:44:29.772Z,99436.44
2022-09-28T07:46:56.587Z,99427.09
2022-09-28T07:49:30.848Z,99438.50
2022-09-28T07:52:35.041Z,99439.47
2022-09-28T07:55:09.801Z,99438.81
2022-09-28T07:57:55.259Z,99452.13
2022-09-28T08:00:49.787Z,99443.16
2022-09-28T08:03:18.168Z,99440.06
2022-09-28T08:05:46.946Z,99443.59
2022-09-28T08:08:14.849Z,99448.16
2022-09-28T08:10:47.281Z,99447.75
2022-09-28T08:13:23.518Z,99447.81
2022-09-28T08:16:13.283Z,99452.34
2022-09-28T08:18:56.871Z,99453.75
2022-09-28T08:21:42.433Z,99457.59
2022-09-28T08:24:08.909Z,99459.31
2022-09-28T08:26:36.013Z,99463.16
2022-09-28T08:29:03.062Z,99472.53
2022-09-28T08:31:47.916Z,99474.31
2022-09-28T08:34:32.916Z,99472.91
2022-09-28T08:37:15.434Z,99472.75
2022-09-28T08:39:59.903Z,99468.78
2022-09-28T08:42:48.668Z,99480.84
2022-09-28T08:45:35.757Z,99475.91
2022-09-28T08:48:51.728Z,99477.44
2022-09-28T08:51:34.423Z,99482.44
2022-09-28T08:55:14.602Z,99480.81
2022-09-28T08:58:17.151Z,99484.47
2022-09-28T09:00:49.797Z,99484.16
2022-09-28T09:03:35.131Z,99498.53
2022-09-28T09:06:27.517Z,99490.69
2022-09-28T09:09:38.180Z,99496.44
2022-09-28T09:12:18.607Z,99500.94
2022-09-28T09:14:55.918Z,99499.09
2022-09-28T09:17:58.811Z,99491.34
2022-09-28T09:21:12.127Z,99489.31
2022-09-28T09:23:55.987Z,99489.38
2022-09-28T09:26:38.488Z,99495.31
2022-09-28T09:29:56.087Z,99489.13
2022-09-28T09:33:04.717Z,99489.28
2022-09-28T09:36:04.113Z,99494.34
2022-09-28T09:39:36.031Z,99490.50
2022-09-28T09:42:30.147Z,99494.81
2022-09-28T09:45:33.908Z,99492.84
2022-09-28T09:48:45.739Z,99498.34
2022-09-28T09:51:32.719Z,99488.16
2022-09-28T09:54:04.226Z,99498.88
2022-09-28T09:56:36.825Z,99489.34
2022-09-28T09:59:24.204Z,99496.13
2022-09-28T10:02:19.414Z,99500.31
2022-09-28T10:04:57.081Z,99489.63
2022-09-28T10:07:43.595Z,99485.97
2022-09-28T10:10:51.679Z,99481.78
2022-09-28T10:13:20.106Z,99490.63
2022-09-28T10:15:48.870Z,99485.97
2022-09-28T10:18:21.958Z,99485.72
2022-09-28T10:21:22.978Z,99481.31
2022-09-28T10:24:02.597Z,99483.06
2022-09-28T10:26:43.863Z,99479.38
2022-09-28T10:29:19.745Z,99478.66
2022-09-28T10:31:51.231Z,99481.00
2022-09-28T10:34:35.495Z,99472.13
2022-09-28T10:37:11.793Z,99463.94
2022-09-28T10:39:57.376Z,99458.25
2022-09-28T10:42:30.123Z,99459.22
2022-09-28T10:45:24.069Z,99468.44
2022-09-28T10:47:51.131Z,99458.13
2022-09-28T10:50:23.584Z,99452.25
2022-09-28T10:53:11.455Z,99447.56
2022-09-28T10:56:23.157Z,99449.47
2022-09-28T10:59:28.316Z,99442.91
2022-09-28T11:02:16.975Z,99441.44
2022-09-28T11:04:49.892Z,99444.16
2022-09-28T11:07:25.885Z,99445.59
2022-09-28T11:09:54.625Z,99453.34
2022-09-28T11:12:26.240Z,99449.47
2022-09-28T11:15:02.367Z,99449.84
2022-09-28T11:17:38.784Z,99442.50
2022-09-28T11:20:27.348Z,99447.41
2022-09-28T11:22:55.829Z,99436.19
2022-09-28T11:25:29.505Z,99437.22
2022-09-28T11:27:59.072Z,99437.53
2022-09-28T11:30:40.614Z,99436.34
2022-09-28T11:33:30.904Z,99437.13
2022-09-28T11:36:43.066Z,99434.56
2022-09-28T11:39:39.971Z,99442.56
2022-09-28T11:42:54.530Z,99453.13
2022-09-28T11:45:39.623Z,99458.13
2022-09-28T11:48:29.684Z,99463.81
2022-09-28T11:51:02.144Z,99470.53
2022-09-28T11:53:39.088Z,99452.97
2022-09-28T11:56:26.685Z,99449.28
2022-09-28T11:59:04.040Z,99463.31
2022-09-28T12:01:57.141Z,99460.31
2022-09-28T12:04:38.688Z,99462.84
2022-09-28T12:07:25.882Z,99461.44
2022-09-28T12:10:10.472Z,99470.50
2022-09-28T12:12:58.920Z,99475.56
2022-09-28T12:16:15.066Z,99482.81
2022-09-28T12:18:52.953Z,99490.13
2022-09-28T12:21:32.193Z,99496.59
2022-09-28T12:24:05.351Z,99495.06
2022-09-28T12:26:39.565Z,99486.84
2022-09-28T12:29:14.559Z,99480.25
2022-09-28T12:32:02.727Z,99481.97
2022-09-28T12:34:29.202Z,99487.06
2022-09-28T12:37:27.908Z,99487.22
2022-09-28T12:39:58.931Z,99495.13
2022-09-28T12:42:40.132Z,99496.88
2022-09-28T12:45:17.605Z,99501.34
2022-09-28T12:48:28.173Z,99499.94
2022-09-28T12:51:19.619Z,99490.19
2022-09-28T12:53:46.196Z,99487.16
2022-09-28T12:56:31.925Z,99475.53
2022-09-28T12:59:15.777Z,99477.50
2022-09-28T13:01:55.943Z,99474.31
2022-09-28T13:04:53.136Z,99467.34
2022-09-28T13:07:32.148Z,99466.81
2022-09-28T13:10:06.911Z,99463.63
2022-09-28T13:13:08.976Z,99462.34
2022-09-28T13:15:44.888Z,99457.84
2022-09-28T13:18:42.497Z,99466.97
2022-09-28T13:21:22.756Z,99460.56
2022-09-28T13:23:57.863Z,99463.16
2022-09-28T13:26:40.201Z,99461.25
2022-09-28T13:29:14.039Z,99455.84
2022-09-28T13:31:53.346Z,99459.84
2022-09-28T13:34:24.840Z,99456.63
2022-09-28T13:37:21.985Z,99455.53
2022-09-28T13:39:56.721Z,99451.41
2022-09-28T13:42:51.884Z,99465.97
2022-09-28T13:46:07.668Z,99456.50
2022-09-28T13:49:17.433Z,99460.47
2022-09-28T13:51:59.784Z,99458.38
2022-09-28T13:54:57.013Z,99471.75
2022-09-28T13:57:35.513Z,99475.41
2022-09-28T14:00:11.436Z,99473.88
2022-09-28T14:02:45.509Z,99475.84
2022-09-28T14:05:25.027Z,99481.84
2022-09-28T14:08:26.954Z,99484.31
2022-09-28T14:11:17.310Z,99489.75
2022-09-28T14:13:44.297Z,99498.94
2022-09-28T14:16:27.441Z,99491.00
2022-09-28T14:19:07.030Z,99493.25
2022-09-28T14:22:01.604Z,99503.41
2022-09-28T14:25:10.608Z,99499.66
2022-09-28T14:27:55.718Z,99502.78
2022-09-28T14:30:26.103Z,99509.25
2022-09-28T14:32:59.826Z,99511.03
2022-09-28T14:35:29.569Z,99511.25
2022-09-28T14:38:21.078Z,99505.72
2022-09-28T14:41:13.577Z,99513.25
2022-09-28T14:43:45.757Z,99512.19
2022-09-28T14:46:12.972Z,99518.72
2022-09-28T14:49:03.441Z,99515.78
2022-09-28T14:51:30.074Z,99513.66
2022-09-28T14:54:02.538Z,99521.41
2022-09-28T14:56:33.075Z,99519.88
2022-09-28T14:59:00.315Z,99520.66
2022-09-28T15:01:27.587Z,99520.19
2022-09-28T15:04:01.363Z,99522.47
2022-09-28T15:06:44.859Z,99517.66
2022-09-28T15:09:35.096Z,99527.06
2022-09-28T15:12:07.583Z,99517.72
2022-09-28T15:14:44.463Z,99528.56
2022-09-28T15:17:13.292Z,99524.84
2022-09-28T15:19:57.462Z,99528.00
2022-09-28T15:22:23.886Z,99528.75
2022-09-28T15:25:05.710Z,99534.50
2022-09-28T15:27:37.884Z,99542.56
2022-09-28T15:30:19.636Z,99542.56
2022-09-28T15:32:45.992Z,99539.19
2022-09-28T15:35:17.169Z,99540.50
2022-09-28T15:37:44.744Z,99543.59
2022-09-28T15:40:15.349Z,99548.75
2022-09-28T15:42:42.187Z,99541.53
2022-09-28T15:45:08.518Z,99555.66
2022-09-28T15:47:36.199Z,99556.75
2022-09-28T15:50:05.971Z,99559.41
2022-09-28T15:52:37.872Z,99565.47
2022-09-28T15:55:18.961Z,99564.09
2022-09-28T15:57:45.589Z,99559.06
2022-09-28T16:00:28.190Z,99562.13
2022-09-28T16:03:05.438Z,99565.72
2022-09-28T16:05:59.675Z,99571.16
2022-09-28T16:08:39.819Z,99577.66
2022-09-28T16:11:18.543Z,99580.31
2022-09-28T16:14:13.442Z,99575.91
2022-09-28T16:16:50.325Z,99589.09
2022-09-28T16:19:32.068Z,99592.28
2022-09-28T16:21:59.881Z,99592.16
2022-09-28T16:24:30.350Z,99586.03
2022-09-28T16:26:58.938Z,99584.44
2022-09-28T16:29:41.183Z,99588.78
2022-09-28T16:32:26.111Z,99591.22
2022-09-28T16:35:11.519Z,99595.09
2022-09-28T16:37:42.614Z,99594.38
2022-09-28T16:40:12.622Z,99595.53
2022-09-28T16:42:46.789Z,99598.50
2022-09-28T16:45:21.420Z,99595.31
2022-09-28T16:47:52.295Z,99601.94
2022-09-28T16:50:21.131Z,99597.97
2022-09-28T16:53:18.667Z,99596.88
2022-09-28T16:55:48.412Z,99606.91
2022-09-28T16:58:14.835Z,99603.94
2022-09-28T17:00:43.300Z,99607.91
2022-09-28T17:03:15.223Z,99604.72
2022-09-28T17:05:41.888Z,99613.78
2022-09-28T17:08:13.433Z,99610.59
2022-09-28T17:11:15.525Z,99612.06
2022-09-28T17:13:45.830Z,99615.66
2022-09-28T17:19:23.842Z,99626.75
2022-09-28T17:21:51.576Z,99622.91
2022-09-28T17:24:19.197Z,99621.50
2022-09-28T17:26:49.153Z,99624.47
2022-09-28T17:29:17.259Z,99633.59
2022-09-28T17:31:45.266Z,99623.38
2022-09-28T17:34:15.155Z,99627.97
2022-09-28T17:36:42.702Z,99630.03
2022-09-28T17:39:15.318Z,99634.75
2022-09-28T17:41:41.739Z,99633.25
2022-09-28T17:44:08.251Z,99635.34
2022-09-28T17:46:38.643Z,99633.94
2022-09-28T17:49:06.960Z,99642.13
2022-09-28T17:51:37.453Z,99639.84
2022-09-28T17:54:05.426Z,99645.28
2022-09-28T17:56:32.744Z,99642.13
2022-09-28T17:59:01.109Z,99642.38
2022-09-28T18:01:33.607Z,99647.00
2022-09-28T18:04:04.887Z,99644.53
2022-09-28T18:06:34.972Z,99653.47
2022-09-28T18:09:03.141Z,99653.66
2022-09-28T18:11:31.126Z,99655.63
2022-09-28T18:13:57.546Z,99660.13
2022-09-28T18:16:24.179Z,99656.84
2022-09-28T18:18:50.696Z,99663.97
2022-09-28T18:21:17.117Z,99666.78
2022-09-28T18:23:44.591Z,99664.34
2022-09-28T18:26:15.814Z,99665.47
2022-09-28T18:28:42.447Z,99670.88
2022-09-28T18:31:10.751Z,99665.78
2022-09-28T18:33:37.663Z,99665.03
2022-09-28T18:36:05.651Z,99670.47
2022-09-28T18:38:35.389Z,99670.72
2022-09-28T18:41:10.100Z,99682.28
2022-09-28T18:43:37.156Z,99685.84
2022-09-28T18:46:11.146Z,99674.75
2022-09-28T18:48:38.420Z,99682.72
2022-09-28T18:51:08.797Z,99682.91
2022-09-28T18:53:35.362Z,99682.13
2022-09-28T18:56:09.972Z,99692.00
2022-09-28T18:58:37.772Z,99687.56
2022-09-28T19:01:28.286Z,99693.03
2022-09-28T19:03:55.012Z,99694.72
2022-09-28T19:06:21.378Z,99699.38
2022-09-28T19:08:52.997Z,99701.34
2022-09-28T19:11:19.514Z,99703.22
2022-09-28T19:13:45.852Z,99706.84
2022-09-28T19:16:15.716Z,99709.75
2022-09-28T19:18:43.826Z,99704.66
2022-09-28T19:21:12.148Z,99706.59
2022-09-28T19:23:39.122Z,99712.78
2022-09-28T19:26:08.673Z,99715.56
2022-09-28T19:28:35.557Z,99715.66
2022-09-28T19:31:05.007Z,99714.91
2022-09-28T19:33:31.867Z,99723.72
2022-09-28T19:36:09.722Z,99722.28
2022-09-28T19:38:38.143Z,99729.31
2022-09-28T19:41:37.793Z,99719.00
2022-09-28T19:44:28.666Z,99722.59
2022-09-28T19:46:56.545Z,99728.69
2022-09-28T19:49:24.329Z,99731.59
2022-09-28T19:52:13.927Z,99735.25
2022-09-28T19:54:44.443Z,99725.66
2022-09-28T19:57:12.103Z,99734.56
2022-09-28T19:59:39.169Z,99734.47
2022-09-28T20:02:07.454Z,99736.16
2022-09-28T20:04:34.139Z,99732.53
2022-09-28T20:07:00.960Z,99734.22
2022-09-28T20:09:27.292Z,99741.06
2022-09-28T20:11:53.738Z,99746.22
2022-09-28T20:14:22.390Z,99753.19
2022-09-28T20:16:50.920Z,99751.44
2022-09-28T20:19:19.380Z,99746.94
2022-09-28T20:21:47.945Z,99749.47
2022-09-28T20:24:16.018Z,99754.72
2022-09-28T20:26:43.295Z,99760.81
2022-09-28T20:29:09.753Z,99758.28
2022-09-28T20:31:36.564Z,99753.97
2022-09-28T20:34:04.830Z,99760.06
2022-09-28T20:36:31.977Z,99755.66
2022-09-28T20:39:01.869Z,99761.09
2022-09-28T20:41:34.593Z,99756.91
2022-09-28T20:44:05.049Z,99764.97
2022-09-28T20:46:32.870Z,99758.25
2022-09-28T20:48:59.662Z,99764.59
2022-09-28T20:51:26.088Z,99762.22
2022-09-28T20:53:54.862Z,99765.94
2022-09-28T20:56:23.903Z,99760.00
2022-09-28T20:58:51.622Z,99767.97
2022-09-28T21:01:20.746Z,99767.22
2022-09-28T21:03:49.772Z,99767.22
2022-09-28T21:06:18.097Z,99764.66
2022-09-28T21:08:45.223Z,99764.81
2022-09-28T21:11:12.703Z,99766.59
2022-09-28T21:13:42.886Z,99768.38
2022-09-28T21:16:11.973Z,99773.63
2022-09-28T21:18:39.228Z,99772.78
2022-09-28T21:21:11.756Z,99776.34
2022-09-28T21:23:38.418Z,99776.34
2022-09-28T21:26:10.555Z,99770.25
2022-09-28T21:28:38.015Z,99777.19
2022-09-28T21:31:08.576Z,99779.81
2022-09-28T21:33:35.084Z,99776.34
2022-09-28T21:36:02.758Z,99778.25
2022-09-28T21:38:29.996Z,99775.63
2022-09-28T21:40:58.396Z,99773.09
2022-09-28T21:43:26.511Z,99775.78
2022-09-28T21:45:54.689Z,99781.09
2022-09-28T21:48:22.792Z,99789.97
2022-09-28T21:51:06.253Z,99788.44
2022-09-28T21:53:37.367Z,99789.47
2022-09-28T21:56:05.976Z,99787.06
2022-09-28T21:58:34.531Z,99787.31
2022-09-28T22:01:11.037Z,99790.84
2022-09-28T22:03:38.761Z,99795.22
2022-09-28T22:06:06.019Z,99789.31
2022-09-28T22:08:32.864Z,99795.63
2022-09-28T22:11:03.092Z,99794.94
2022-09-28T22:13:31.564Z,99794.19
2022-09-28T22:15:59.481Z,99796.94
2022-09-28T22:18:27.911Z,99791.84
2022-09-28T22:21:02.733Z,99796.41
2022-09-28T22:23:30.013Z,99799.03
2022-09-28T22:26:02.047Z,99794.88
2022-09-28T22:28:28.926Z,99799.44
2022-09-28T22:30:56.574Z,99806.56
2022-09-28T22:33:25.872Z,99802.34
2022-09-28T22:35:52.655Z,99798.88
2022-09-28T22:38:20.587Z,99808.50
2022-09-28T22:40:55.590Z,99809.50
2022-09-28T22:43:23.464Z,99800.88
2022-09-28T22:45:50.170Z,99801.88
2022-09-28T22:48:16.617Z,99815.06
2022-09-28T22:50:52.007Z,99810.97
2022-09-28T22:53:19.221Z,99810.03
2022-09-28T22:55:45.696Z,99811.81
2022-09-28T22:58:12.183Z,99814.50
2022-09-28T23:00:38.592Z,99812.72
2022-09-28T23:03:05.038Z,99824.06
2022-09-28T23:05:31.955Z,99820.59
2022-09-28T23:07:58.540Z,99822.34
2022-09-28T23:10:25.025Z,99822.44
2022-09-28T23:12:53.408Z,99823.41
2022-09-28T23:15:21.438Z,99819.09
2022-09-28T23:17:52.195Z,99817.56
2022-09-28T23:20:19.567Z,99820.28
2022-09-28T23:22:47.667Z,99818.63
2022-09-28T23:25:15.718Z,99822.25
2022-09-28T23:27:47.145Z,99818.03
2022-09-28T23:30:16.512Z,99816.31
2022-09-28T23:32:43.299Z,99823.47
2022-09-28T23:35:10.358Z,99820.06
2022-09-28T23:37:37.500Z,99820.91
2022-09-28T23:40:07.732Z,99815.84
2022-09-28T23:42:34.838Z,99817.63
2022-09-28T23:45:01.312Z,99813.28
2022-09-28T23:47:27.868Z,99822.06
2022-09-28T23:49:54.326Z,99818.59
2022-09-28T23:52:20.737Z,99824.75
2022-09-28T23:54:47.157Z,99821.34
2022-09-28T23:57:13.549Z,99826.69
2022-09-28T23:59:40.110Z,99825.88
